sensor_id;sensor_type;location;lat;lon;timestamp;pressure;altitude;pressure_sealevel;temperature;humidity
73453;BME280;61687;56.232;43.854;2022-08-02T00:00:13;101064.31;;;15.34;78.28
73453;BME280;61687;56.232;43.854;2022-08-02T00:02:41;101063.09;;;15.31;78.43
73453;BME280;61687;56.232;43.854;2022-08-02T00:05:08;101070.59;;;15.30;78.32
73453;BME280;61687;56.232;43.854;2022-08-02T00:07:34;101066.63;;;15.28;78.38
73453;BME280;61687;56.232;43.854;2022-08-02T00:10:01;101063.84;;;15.28;78.38
73453;BME280;61687;56.232;43.854;2022-08-02T00:12:29;101062.28;;;15.27;78.37
73453;BME280;61687;56.232;43.854;2022-08-02T00:14:55;101059.50;;;15.27;78.46
73453;BME280;61687;56.232;43.854;2022-08-02T00:17:21;101063.06;;;15.27;78.47
73453;BME280;61687;56.232;43.854;2022-08-02T00:19:47;101063.81;;;15.24;78.69
73453;BME280;61687;56.232;43.854;2022-08-02T00:22:13;101059.88;;;15.22;78.85
73453;BME280;61687;56.232;43.854;2022-08-02T00:24:39;101061.81;;;15.18;78.89
73453;BME280;61687;56.232;43.854;2022-08-02T00:27:05;101071.25;;;15.16;78.85
73453;BME280;61687;56.232;43.854;2022-08-02T00:29:34;101068.47;;;15.16;78.62
73453;BME280;61687;56.232;43.854;2022-08-02T00:32:00;101074.00;;;15.16;78.87
73453;BME280;61687;56.232;43.854;2022-08-02T00:34:26;101075.97;;;15.16;78.81
73453;BME280;61687;56.232;43.854;2022-08-02T00:36:52;101073.22;;;15.16;78.85
73453;BME280;61687;56.232;43.854;2022-08-02T00:39:18;101070.81;;;15.14;79.07
73453;BME280;61687;56.232;43.854;2022-08-02T00:41:48;101066.88;;;15.12;78.94
73453;BME280;61687;56.232;43.854;2022-08-02T00:44:15;101071.22;;;15.13;79.20
73453;BME280;61687;56.232;43.854;2022-08-02T00:46:42;101067.66;;;15.12;79.08
73453;BME280;61687;56.232;43.854;2022-08-02T00:49:09;101064.13;;;15.12;79.14
73453;BME280;61687;56.232;43.854;2022-08-02T00:51:36;101071.59;;;15.11;79.17
73453;BME280;61687;56.232;43.854;2022-08-02T00:54:03;101062.91;;;15.09;79.10
73453;BME280;61687;56.232;43.854;2022-08-02T00:56:29;101074.75;;;15.10;79.10
73453;BME280;61687;56.232;43.854;2022-08-02T00:58:55;101070.78;;;15.07;79.02
73453;BME280;61687;56.232;43.854;2022-08-02T01:01:21;101071.53;;;15.04;79.05
73453;BME280;61687;56.232;43.854;2022-08-02T01:04:07;101069.16;;;15.02;79.07
73453;BME280;61687;56.232;43.854;2022-08-02T01:06:36;101073.88;;;15.02;79.25
73453;BME280;61687;56.232;43.854;2022-08-02T01:09:03;101068.38;;;15.02;79.27
73453;BME280;61687;56.232;43.854;2022-08-02T01:11:30;101071.13;;;15.02;79.50
73453;BME280;61687;56.232;43.854;2022-08-02T01:13:59;101071.53;;;15.04;79.41
73453;BME280;61687;56.232;43.854;2022-08-02T01:16:31;101069.56;;;15.05;79.19
73453;BME280;61687;56.232;43.854;2022-08-02T01:19:56;101062.84;;;15.06;79.24
73453;BME280;61687;56.232;43.854;2022-08-02T01:30:18;101061.66;;;15.03;78.85
73453;BME280;61687;56.232;43.854;2022-08-02T01:32:49;101064.44;;;15.03;79.09
73453;BME280;61687;56.232;43.854;2022-08-02T01:35:31;101064.84;;;15.05;79.14
73453;BME280;61687;56.232;43.854;2022-08-02T01:40:36;101062.13;;;15.09;79.30
73453;BME280;61687;56.232;43.854;2022-08-02T01:43:02;101067.66;;;15.12;79.11
73453;BME280;61687;56.232;43.854;2022-08-02T01:45:32;101064.13;;;15.15;79.17
73453;BME280;61687;56.232;43.854;2022-08-02T01:47:59;101068.94;;;15.22;78.91
73453;BME280;61687;56.232;43.854;2022-08-02T01:50:28;101061.47;;;15.26;78.75
73453;BME280;61687;56.232;43.854;2022-08-02T01:52:59;101061.50;;;15.30;78.72
73453;BME280;61687;56.232;43.854;2022-08-02T01:55:51;101056.81;;;15.34;78.80
73453;BME280;61687;56.232;43.854;2022-08-02T01:58:18;101064.31;;;15.37;78.73
73453;BME280;61687;56.232;43.854;2022-08-02T02:00:45;101062.41;;;15.41;78.64
73453;BME280;61687;56.232;43.854;2022-08-02T02:03:18;101069.16;;;15.48;78.54
73453;BME280;61687;56.232;43.854;2022-08-02T02:05:46;101060.13;;;15.54;78.60
73453;BME280;61687;56.232;43.854;2022-08-02T02:08:13;101062.91;;;15.58;78.61
73453;BME280;61687;56.232;43.854;2022-08-02T02:10:39;101055.44;;;15.62;78.57
73453;BME280;61687;56.232;43.854;2022-08-02T02:13:11;101059.81;;;15.67;78.49
73453;BME280;61687;56.232;43.854;2022-08-02T02:15:40;101065.78;;;15.72;78.56
73453;BME280;61687;56.232;43.854;2022-08-02T02:18:10;101060.69;;;15.78;78.43
73453;BME280;61687;56.232;43.854;2022-08-02T02:20:37;101069.00;;;15.82;78.61
73453;BME280;61687;56.232;43.854;2022-08-02T02:23:03;101069.41;;;15.84;78.46
73453;BME280;61687;56.232;43.854;2022-08-02T02:25:30;101084.84;;;15.88;78.77
73453;BME280;61687;56.232;43.854;2022-08-02T02:28:03;101074.63;;;15.93;78.52
73453;BME280;61687;56.232;43.854;2022-08-02T02:30:32;101080.97;;;15.97;78.46
73453;BME280;61687;56.232;43.854;2022-08-02T02:33:00;101080.97;;;16.00;78.60
73453;BME280;61687;56.232;43.854;2022-08-02T02:35:33;101086.94;;;16.06;78.58
73453;BME280;61687;56.232;43.854;2022-08-02T02:38:04;101088.16;;;16.12;78.37
73453;BME280;61687;56.232;43.854;2022-08-02T02:40:31;101090.16;;;16.15;78.55
73453;BME280;61687;56.232;43.854;2022-08-02T02:42:59;101092.94;;;16.19;78.63
73453;BME280;61687;56.232;43.854;2022-08-02T02:45:27;101096.50;;;16.23;78.66
73453;BME280;61687;56.232;43.854;2022-08-02T02:47:55;101102.47;;;16.29;78.59
73453;BME280;61687;56.232;43.854;2022-08-02T02:50:23;101100.50;;;16.33;78.78
73453;BME280;61687;56.232;43.854;2022-08-02T02:52:51;101096.56;;;16.38;78.67
73453;BME280;61687;56.232;43.854;2022-08-02T02:55:17;101091.44;;;16.40;78.75
73453;BME280;61687;56.232;43.854;2022-08-02T02:57:44;101098.59;;;16.44;78.59
73453;BME280;61687;56.232;43.854;2022-08-02T03:00:13;101091.09;;;16.49;78.50
73453;BME280;61687;56.232;43.854;2022-08-02T03:02:41;101093.09;;;16.55;78.62
73453;BME280;61687;56.232;43.854;2022-08-02T03:05:09;101091.94;;;16.64;78.55
73453;BME280;61687;56.232;43.854;2022-08-02T03:07:38;101095.53;;;16.68;78.57
73453;BME280;61687;56.232;43.854;2022-08-02T03:10:05;101093.16;;;16.73;78.25
73453;BME280;61687;56.232;43.854;2022-08-02T03:12:33;101100.69;;;16.80;78.33
73453;BME280;61687;56.232;43.854;2022-08-02T03:15:04;101099.91;;;16.83;78.69
73453;BME280;61687;56.232;43.854;2022-08-02T03:17:41;101105.47;;;16.94;78.25
73453;BME280;61687;56.232;43.854;2022-08-02T03:20:09;101094.84;;;17.04;77.90
73453;BME280;61687;56.232;43.854;2022-08-02T03:22:36;101092.50;;;17.16;77.55
73453;BME280;61687;56.232;43.854;2022-08-02T03:25:01;101102.38;;;17.25;77.41
73453;BME280;61687;56.232;43.854;2022-08-02T03:27:30;101107.94;;;17.36;77.11
73453;BME280;61687;56.232;43.854;2022-08-02T03:29:55;101107.16;;;17.46;76.74
73453;BME280;61687;56.232;43.854;2022-08-02T03:32:22;101109.50;;;17.58;76.72
73453;BME280;61687;56.232;43.854;2022-08-02T03:34:48;101102.00;;;17.70;76.48
73453;BME280;61687;56.232;43.854;2022-08-02T03:37:15;101102.75;;;17.81;76.17
73453;BME280;61687;56.232;43.854;2022-08-02T03:39:41;101098.00;;;17.93;75.63
73453;BME280;61687;56.232;43.854;2022-08-02T03:42:08;101097.19;;;18.03;75.26
73453;BME280;61687;56.232;43.854;2022-08-02T03:44:35;101103.91;;;18.13;75.05
73453;BME280;61687;56.232;43.854;2022-08-02T03:47:05;101107.47;;;18.24;74.47
73453;BME280;61687;56.232;43.854;2022-08-02T03:49:32;101108.22;;;18.32;74.31
73453;BME280;61687;56.232;43.854;2022-08-02T03:52:00;101105.81;;;18.41;74.02
73453;BME280;61687;56.232;43.854;2022-08-02T03:54:26;101102.59;;;18.50;73.52
73453;BME280;61687;56.232;43.854;2022-08-02T03:56:52;101104.16;;;18.58;72.39
73453;BME280;61687;56.232;43.854;2022-08-02T03:59:18;101097.00;;;18.68;71.27
73453;BME280;61687;56.232;43.854;2022-08-02T04:01:44;101104.84;;;18.81;70.66
73453;BME280;61687;56.232;43.854;2022-08-02T04:04:10;101106.75;;;18.95;69.28
73453;BME280;61687;56.232;43.854;2022-08-02T04:06:37;101106.66;;;19.13;69.27
73453;BME280;61687;56.232;43.854;2022-08-02T04:09:03;101106.97;;;19.26;69.36
73453;BME280;61687;56.232;43.854;2022-08-02T04:11:29;101110.06;;;19.39;67.99
73453;BME280;61687;56.232;43.854;2022-08-02T04:14:04;101109.97;;;19.50;66.79
73453;BME280;61687;56.232;43.854;2022-08-02T04:19:17;101111.72;;;19.74;64.38
73453;BME280;61687;56.232;43.854;2022-08-02T04:21:45;101113.22;;;19.83;63.95
73453;BME280;61687;56.232;43.854;2022-08-02T04:24:13;101111.22;;;19.87;63.05
73453;BME280;61687;56.232;43.854;2022-08-02T04:26:42;101117.56;;;19.91;62.29
73453;BME280;61687;56.232;43.854;2022-08-02T04:29:10;101117.13;;;19.93;61.67
73453;BME280;61687;56.232;43.854;2022-08-02T04:31:37;101119.88;;;20.00;61.36
73453;BME280;61687;56.232;43.854;2022-08-02T04:34:04;101115.78;;;20.08;60.61
73453;BME280;61687;56.232;43.854;2022-08-02T04:36:30;101117.72;;;20.15;60.04
73453;BME280;61687;56.232;43.854;2022-08-02T04:38:56;101118.44;;;20.23;60.38
73453;BME280;61687;56.232;43.854;2022-08-02T04:41:22;101113.19;;;20.28;59.81
73453;BME280;61687;56.232;43.854;2022-08-02T04:44:00;101104.38;;;20.34;59.52
73453;BME280;61687;56.232;43.854;2022-08-02T04:46:26;101107.06;;;20.41;59.21
73453;BME280;61687;56.232;43.854;2022-08-02T04:48:52;101109.78;;;20.48;59.47
73453;BME280;61687;56.232;43.854;2022-08-02T04:51:18;101112.47;;;20.55;59.62
73453;BME280;61687;56.232;43.854;2022-08-02T04:53:44;101111.22;;;20.60;58.49
73453;BME280;61687;56.232;43.854;2022-08-02T04:56:10;101108.75;;;20.66;58.53
73453;BME280;61687;56.232;43.854;2022-08-02T04:58:36;101109.06;;;20.71;58.47
73453;BME280;61687;56.232;43.854;2022-08-02T05:01:01;101112.19;;;20.77;58.52
73453;BME280;61687;56.232;43.854;2022-08-02T05:03:27;101114.53;;;20.82;58.25
73453;BME280;61687;56.232;43.854;2022-08-02T05:05:53;101116.44;;;20.89;58.01
73453;BME280;61687;56.232;43.854;2022-08-02T05:08:19;101119.19;;;20.93;58.32
73453;BME280;61687;56.232;43.854;2022-08-02T05:10:45;101116.69;;;20.98;57.57
73453;BME280;61687;56.232;43.854;2022-08-02T05:13:11;101103.44;;;21.06;57.57
73453;BME280;61687;56.232;43.854;2022-08-02T05:15:37;101114.50;;;21.13;57.84
73453;BME280;61687;56.232;43.854;2022-08-02T05:18:03;101119.22;;;21.16;58.34
73453;BME280;61687;56.232;43.854;2022-08-02T05:20:29;101104.44;;;21.20;58.96
73453;BME280;61687;56.232;43.854;2022-08-02T05:22:55;101107.94;;;21.24;58.38
73453;BME280;61687;56.232;43.854;2022-08-02T05:25:21;101110.25;;;21.29;58.12
73453;BME280;61687;56.232;43.854;2022-08-02T05:27:47;101109.81;;;21.34;57.52
73453;BME280;61687;56.232;43.854;2022-08-02T05:30:12;101103.78;;;21.36;57.44
73453;BME280;61687;56.232;43.854;2022-08-02T05:32:43;101100.59;;;21.37;57.51
73453;BME280;61687;56.232;43.854;2022-08-02T05:35:09;101100.47;;;21.44;58.14
73453;BME280;61687;56.232;43.854;2022-08-02T05:37:35;101107.47;;;21.53;56.97
73453;BME280;61687;56.232;43.854;2022-08-02T05:40:01;101109.72;;;21.62;56.36
73453;BME280;61687;56.232;43.854;2022-08-02T05:42:32;101104.84;;;21.69;56.18
73453;BME280;61687;56.232;43.854;2022-08-02T05:44:58;101105.94;;;21.76;56.48
73453;BME280;61687;56.232;43.854;2022-08-02T05:47:24;101103.78;;;21.83;56.08
73453;BME280;61687;56.232;43.854;2022-08-02T05:49:50;101095.31;;;21.91;56.17
73453;BME280;61687;56.232;43.854;2022-08-02T05:52:18;101097.94;;;21.98;55.77
73453;BME280;61687;56.232;43.854;2022-08-02T05:54:48;101097.03;;;22.05;55.94
73453;BME280;61687;56.232;43.854;2022-08-02T06:00:21;101096.88;;;22.12;55.04
73453;BME280;61687;56.232;43.854;2022-08-02T06:05:59;101085.84;;;22.25;54.98
73453;BME280;61687;56.232;43.854;2022-08-02T06:08:38;101088.16;;;22.30;54.06
73453;BME280;61687;56.232;43.854;2022-08-02T06:11:12;101092.72;;;22.40;54.14
73453;BME280;61687;56.232;43.854;2022-08-02T06:13:42;101100.91;;;22.51;53.80
73453;BME280;61687;56.232;43.854;2022-08-02T06:16:09;101096.38;;;22.57;53.12
73453;BME280;61687;56.232;43.854;2022-08-02T06:18:35;101092.75;;;22.61;53.13
73453;BME280;61687;56.232;43.854;2022-08-02T06:21:03;101094.22;;;22.65;52.62
73453;BME280;61687;56.232;43.854;2022-08-02T06:23:31;101093.69;;;22.70;52.66
73453;BME280;61687;56.232;43.854;2022-08-02T06:25:58;101089.97;;;22.77;53.25
73453;BME280;61687;56.232;43.854;2022-08-02T06:28:25;101087.38;;;22.86;53.09
73453;BME280;61687;56.232;43.854;2022-08-02T06:30:55;101093.94;;;22.96;52.24
73453;BME280;61687;56.232;43.854;2022-08-02T06:33:22;101083.81;;;23.02;52.19
73453;BME280;61687;56.232;43.854;2022-08-02T06:39:01;101094.66;;;23.17;51.60
73453;BME280;61687;56.232;43.854;2022-08-02T06:41:39;101097.22;;;23.28;51.12
73453;BME280;61687;56.232;43.854;2022-08-02T06:44:13;101083.06;;;23.35;50.38
73453;BME280;61687;56.232;43.854;2022-08-02T06:46:40;101090.22;;;23.36;49.65
73453;BME280;61687;56.232;43.854;2022-08-02T06:49:07;101081.47;;;23.34;49.20
73453;BME280;61687;56.232;43.854;2022-08-02T06:51:33;101081.75;;;23.40;49.31
73453;BME280;61687;56.232;43.854;2022-08-02T06:53:59;101080.41;;;23.44;49.63
73453;BME280;61687;56.232;43.854;2022-08-02T06:56:25;101077.00;;;23.53;49.33
73453;BME280;61687;56.232;43.854;2022-08-02T06:58:51;101082.50;;;23.57;49.46
73453;BME280;61687;56.232;43.854;2022-08-02T07:01:18;101076.38;;;23.62;49.40
73453;BME280;61687;56.232;43.854;2022-08-02T07:03:44;101075.84;;;23.67;49.56
73453;BME280;61687;56.232;43.854;2022-08-02T07:06:10;101076.88;;;23.73;48.87
73453;BME280;61687;56.232;43.854;2022-08-02T07:08:37;101074.75;;;23.78;48.71
73453;BME280;61687;56.232;43.854;2022-08-02T07:11:07;101076.59;;;23.84;48.31
73453;BME280;61687;56.232;43.854;2022-08-02T07:13:34;101079.19;;;23.92;48.59
73453;BME280;61687;56.232;43.854;2022-08-02T07:16:02;101075.75;;;24.00;47.90
73453;BME280;61687;56.232;43.854;2022-08-02T07:18:28;101073.22;;;24.06;47.31
73453;BME280;61687;56.232;43.854;2022-08-02T07:20:54;101077.16;;;24.09;46.93
73453;BME280;61687;56.232;43.854;2022-08-02T07:23:20;101071.09;;;24.10;47.14
73453;BME280;61687;56.232;43.854;2022-08-02T07:25:47;101072.13;;;24.17;47.41
73453;BME280;61687;56.232;43.854;2022-08-02T07:28:13;101077.97;;;24.22;46.63
73453;BME280;61687;56.232;43.854;2022-08-02T07:30:42;101069.34;;;24.29;46.20
73453;BME280;61687;56.232;43.854;2022-08-02T07:33:08;101073.19;;;24.36;46.24
73453;BME280;61687;56.232;43.854;2022-08-02T07:35:35;101061.75;;;24.43;45.78
73453;BME280;61687;56.232;43.854;2022-08-02T07:38:01;101076.78;;;24.49;46.25
73453;BME280;61687;56.232;43.854;2022-08-02T07:40:28;101076.66;;;24.53;45.94
73453;BME280;61687;56.232;43.854;2022-08-02T07:42:56;101076.25;;;24.54;44.74
73453;BME280;61687;56.232;43.854;2022-08-02T07:45:23;101061.00;;;24.55;45.58
73453;BME280;61687;56.232;43.854;2022-08-02T07:47:49;101072.53;;;24.57;46.21
73453;BME280;61687;56.232;43.854;2022-08-02T07:50:17;101065.13;;;24.64;45.00
73453;BME280;61687;56.232;43.854;2022-08-02T07:52:44;101065.81;;;24.68;45.18
73453;BME280;61687;56.232;43.854;2022-08-02T07:55:12;101067.28;;;24.72;45.80
73453;BME280;61687;56.232;43.854;2022-08-02T07:57:39;101054.75;;;24.77;44.08
73453;BME280;61687;56.232;43.854;2022-08-02T08:00:07;101060.13;;;24.84;44.81
73453;BME280;61687;56.232;43.854;2022-08-02T08:02:39;101059.44;;;24.93;44.84
73453;BME280;61687;56.232;43.854;2022-08-02T08:05:05;101044.28;;;25.04;44.28
73453;BME280;61687;56.232;43.854;2022-08-02T08:07:32;101055.72;;;25.09;44.15
73453;BME280;61687;56.232;43.854;2022-08-02T08:09:58;101050.75;;;25.13;43.67
73453;BME280;61687;56.232;43.854;2022-08-02T08:12:26;101051.13;;;25.15;44.38
73453;BME280;61687;56.232;43.854;2022-08-02T08:14:52;101046.94;;;25.20;43.51
73453;BME280;61687;56.232;43.854;2022-08-02T08:17:18;101048.41;;;25.25;43.42
73453;BME280;61687;56.232;43.854;2022-08-02T08:19:44;101046.25;;;25.29;43.71
73453;BME280;61687;56.232;43.854;2022-08-02T08:22:10;101046.47;;;25.35;44.14
73453;BME280;61687;56.232;43.854;2022-08-02T08:24:36;101048.25;;;25.41;44.66
73453;BME280;61687;56.232;43.854;2022-08-02T08:27:04;101049.69;;;25.46;44.42
73453;BME280;61687;56.232;43.854;2022-08-02T08:29:30;101046.34;;;25.51;43.54
73453;BME280;61687;56.232;43.854;2022-08-02T08:31:56;101046.19;;;25.55;44.76
73453;BME280;61687;56.232;43.854;2022-08-02T08:34:22;101046.19;;;25.55;43.59
73453;BME280;61687;56.232;43.854;2022-08-02T08:36:49;101042.63;;;25.54;43.70
73453;BME280;61687;56.232;43.854;2022-08-02T08:39:15;101042.50;;;25.58;41.75
73453;BME280;61687;56.232;43.854;2022-08-02T08:41:42;101044.41;;;25.61;40.95
73453;BME280;61687;56.232;43.854;2022-08-02T08:44:08;101035.06;;;25.64;41.76
73453;BME280;61687;56.232;43.854;2022-08-02T08:46:36;101034.47;;;25.69;42.01
73453;BME280;61687;56.232;43.854;2022-08-02T08:49:06;101038.13;;;25.79;42.26
73453;BME280;61687;56.232;43.854;2022-08-02T08:51:40;101037.75;;;25.90;43.59
73453;BME280;61687;56.232;43.854;2022-08-02T08:54:11;101037.47;;;25.97;43.67
73453;BME280;61687;56.232;43.854;2022-08-02T08:56:38;101033.16;;;26.06;43.67
73453;BME280;61687;56.232;43.854;2022-08-02T08:59:05;101034.72;;;26.07;41.76
73453;BME280;61687;56.232;43.854;2022-08-02T09:01:31;101031.84;;;25.97;42.67
73453;BME280;61687;56.232;43.854;2022-08-02T09:03:57;101028.59;;;25.99;42.33
73453;BME280;61687;56.232;43.854;2022-08-02T09:06:23;101020.22;;;26.08;41.68
73453;BME280;61687;56.232;43.854;2022-08-02T09:08:49;101024.38;;;26.17;41.22
73453;BME280;61687;56.232;43.854;2022-08-02T09:11:18;101013.97;;;26.26;41.65
73453;BME280;61687;56.232;43.854;2022-08-02T09:16:15;101027.91;;;26.39;41.09
73453;BME280;61687;56.232;43.854;2022-08-02T09:18:51;101023.94;;;26.27;41.46
73453;BME280;61687;56.232;43.854;2022-08-02T09:21:17;101017.28;;;26.34;41.24
73453;BME280;61687;56.232;43.854;2022-08-02T09:23:50;101006.56;;;26.51;41.06
73453;BME280;61687;56.232;43.854;2022-08-02T09:26:22;101015.69;;;26.65;41.24
73453;BME280;61687;56.232;43.854;2022-08-02T09:28:50;101012.56;;;26.72;41.08
73453;BME280;61687;56.232;43.854;2022-08-02T09:31:22;101006.63;;;26.70;41.84
73453;BME280;61687;56.232;43.854;2022-08-02T09:33:58;101016.44;;;26.65;41.25
73453;BME280;61687;56.232;43.854;2022-08-02T09:36:26;101013.25;;;26.45;42.20
73453;BME280;61687;56.232;43.854;2022-08-02T09:38:54;101014.00;;;26.36;42.45
73453;BME280;61687;56.232;43.854;2022-08-02T09:41:23;101008.56;;;26.41;42.37
73453;BME280;61687;56.232;43.854;2022-08-02T09:43:50;101013.75;;;26.52;41.29
73453;BME280;61687;56.232;43.854;2022-08-02T09:46:18;101009.88;;;26.59;40.42
73453;BME280;61687;56.232;43.854;2022-08-02T09:48:50;101012.25;;;26.70;39.06
73453;BME280;61687;56.232;43.854;2022-08-02T09:51:22;101001.81;;;26.80;37.99
73453;BME280;61687;56.232;43.854;2022-08-02T09:53:52;101002.66;;;26.90;38.61
73453;BME280;61687;56.232;43.854;2022-08-02T09:56:19;101000.78;;;26.96;38.92
73453;BME280;61687;56.232;43.854;2022-08-02T09:58:47;100997.03;;;26.99;37.62
73453;BME280;61687;56.232;43.854;2022-08-02T10:01:13;100995.16;;;26.96;37.23
73453;BME280;61687;56.232;43.854;2022-08-02T10:04:01;100993.59;;;26.85;38.14
73453;BME280;61687;56.232;43.854;2022-08-02T10:06:27;100993.91;;;26.88;38.88
73453;BME280;61687;56.232;43.854;2022-08-02T10:08:54;100986.72;;;26.87;39.68
73453;BME280;61687;56.232;43.854;2022-08-02T10:11:24;100997.03;;;26.90;38.03
73453;BME280;61687;56.232;43.854;2022-08-02T10:13:53;100995.94;;;27.06;39.16
73453;BME280;61687;56.232;43.854;2022-08-02T10:16:21;100993.16;;;27.43;37.92
73453;BME280;61687;56.232;43.854;2022-08-02T10:18:54;100991.47;;;28.93;35.75
73453;BME280;61687;56.232;43.854;2022-08-02T10:21:51;100986.25;;;30.46;32.68
73453;BME280;61687;56.232;43.854;2022-08-02T10:24:21;100980.81;;;32.31;30.28
73453;BME280;61687;56.232;43.854;2022-08-02T10:26:48;100988.16;;;34.04;27.85
73453;BME280;61687;56.232;43.854;2022-08-02T10:29:16;100975.41;;;35.69;25.31
73453;BME280;61687;56.232;43.854;2022-08-02T10:32:14;100967.91;;;36.52;25.23
73453;BME280;61687;56.232;43.854;2022-08-02T10:34:46;100966.09;;;37.50;24.54
73453;BME280;61687;56.232;43.854;2022-08-02T10:37:12;100974.97;;;38.26;24.27
73453;BME280;61687;56.232;43.854;2022-08-02T10:39:43;100979.03;;;38.03;24.12
73453;BME280;61687;56.232;43.854;2022-08-02T10:42:10;100976.00;;;37.49;24.64
73453;BME280;61687;56.232;43.854;2022-08-02T10:44:37;100977.59;;;36.68;25.71
73453;BME280;61687;56.232;43.854;2022-08-02T10:47:22;100970.81;;;35.60;26.14
73453;BME280;61687;56.232;43.854;2022-08-02T10:49:55;100973.25;;;34.80;26.84
73453;BME280;61687;56.232;43.854;2022-08-02T10:52:25;100970.06;;;33.67;28.28
73453;BME280;61687;56.232;43.854;2022-08-02T10:55:02;100972.88;;;32.84;30.05
73453;BME280;61687;56.232;43.854;2022-08-02T10:57:32;100970.34;;;32.05;30.79
73453;BME280;61687;56.232;43.854;2022-08-02T11:00:00;100963.66;;;31.49;31.82
73453;BME280;61687;56.232;43.854;2022-08-02T11:02:41;100966.53;;;30.87;32.75
73453;BME280;61687;56.232;43.854;2022-08-02T11:05:29;100965.00;;;30.15;33.06
73453;BME280;61687;56.232;43.854;2022-08-02T11:07:55;100962.94;;;29.55;33.80
73453;BME280;61687;56.232;43.854;2022-08-02T11:15:59;100967.59;;;28.70;35.99
73453;BME280;61687;56.232;43.854;2022-08-02T11:21:31;100966.66;;;29.22;34.22
73453;BME280;61687;56.232;43.854;2022-08-02T11:24:28;100971.97;;;29.44;34.65
73453;BME280;61687;56.232;43.854;2022-08-02T11:26:55;100975.91;;;29.37;35.12
73453;BME280;61687;56.232;43.854;2022-08-02T11:29:37;100957.66;;;29.78;33.53
73453;BME280;61687;56.232;43.854;2022-08-02T11:32:07;100951.94;;;30.02;31.82
73453;BME280;61687;56.232;43.854;2022-08-02T11:34:39;100946.78;;;29.70;34.33
73453;BME280;61687;56.232;43.854;2022-08-02T11:37:07;100956.69;;;29.51;34.75
73453;BME280;61687;56.232;43.854;2022-08-02T11:39:33;100954.84;;;29.93;34.20
73453;BME280;61687;56.232;43.854;2022-08-02T11:41:59;100951.13;;;30.52;33.40
73453;BME280;61687;56.232;43.854;2022-08-02T11:44:27;100963.25;;;30.38;32.17
73453;BME280;61687;56.232;43.854;2022-08-02T11:46:59;100955.06;;;30.40;32.67
73453;BME280;61687;56.232;43.854;2022-08-02T11:49:26;100957.59;;;31.89;31.41
73453;BME280;61687;56.232;43.854;2022-08-02T11:52:04;100951.72;;;34.14;28.82
73453;BME280;61687;56.232;43.854;2022-08-02T11:54:41;100945.63;;;36.45;26.03
73453;BME280;61687;56.232;43.854;2022-08-02T11:57:21;100943.81;;;38.08;24.25
73453;BME280;61687;56.232;43.854;2022-08-02T11:59:52;100958.34;;;37.64;25.13
73453;BME280;61687;56.232;43.854;2022-08-02T12:02:21;100945.19;;;37.23;24.58
73453;BME280;61687;56.232;43.854;2022-08-02T12:04:56;100936.84;;;36.87;24.41
73453;BME280;61687;56.232;43.854;2022-08-02T12:07:34;100936.91;;;36.12;26.21
73453;BME280;61687;56.232;43.854;2022-08-02T12:10:06;100926.91;;;35.33;26.15
73453;BME280;61687;56.232;43.854;2022-08-02T12:12:55;100932.22;;;34.47;27.86
73453;BME280;61687;56.232;43.854;2022-08-02T12:15:37;100927.66;;;33.81;28.65
73453;BME280;61687;56.232;43.854;2022-08-02T12:18:11;100936.88;;;33.19;30.12
73453;BME280;61687;56.232;43.854;2022-08-02T12:21:24;100941.06;;;32.63;30.96
73453;BME280;61687;56.232;43.854;2022-08-02T12:23:50;100930.56;;;32.31;31.45
73453;BME280;61687;56.232;43.854;2022-08-02T12:26:16;100930.69;;;32.10;31.06
73453;BME280;61687;56.232;43.854;2022-08-02T12:28:42;100929.56;;;31.96;30.76
73453;BME280;61687;56.232;43.854;2022-08-02T12:31:10;100927.13;;;32.59;29.70
73453;BME280;61687;56.232;43.854;2022-08-02T12:33:47;100929.50;;;33.73;29.48
73453;BME280;61687;56.232;43.854;2022-08-02T12:36:21;100930.50;;;34.09;29.44
73453;BME280;61687;56.232;43.854;2022-08-02T12:38:53;100932.84;;;33.65;29.91
73453;BME280;61687;56.232;43.854;2022-08-02T12:41:19;100927.69;;;33.47;30.49
73453;BME280;61687;56.232;43.854;2022-08-02T12:43:45;100934.38;;;33.78;29.50
73453;BME280;61687;56.232;43.854;2022-08-02T12:46:17;100934.59;;;34.31;29.18
73453;BME280;61687;56.232;43.854;2022-08-02T12:48:43;100931.94;;;35.21;27.71
73453;BME280;61687;56.232;43.854;2022-08-02T12:51:26;100930.50;;;36.56;25.52
73453;BME280;61687;56.232;43.854;2022-08-02T12:54:11;100936.03;;;37.76;23.80
73453;BME280;61687;56.232;43.854;2022-08-02T12:56:38;100930.59;;;38.59;23.29
73453;BME280;61687;56.232;43.854;2022-08-02T12:59:04;100924.66;;;39.61;23.00
73453;BME280;61687;56.232;43.854;2022-08-02T13:01:31;100920.75;;;40.30;21.93
73453;BME280;61687;56.232;43.854;2022-08-02T13:03:57;100933.31;;;40.48;21.95
73453;BME280;61687;56.232;43.854;2022-08-02T13:06:23;100939.69;;;41.15;21.66
73453;BME280;61687;56.232;43.854;2022-08-02T13:08:51;100926.09;;;41.23;21.43
73453;BME280;61687;56.232;43.854;2022-08-02T13:11:19;100921.09;;;42.01;20.99
73453;BME280;61687;56.232;43.854;2022-08-02T13:13:45;100919.38;;;42.70;18.92
73453;BME280;61687;56.232;43.854;2022-08-02T13:16:11;100920.47;;;43.16;19.46
73453;BME280;61687;56.232;43.854;2022-08-02T13:18:37;100914.56;;;43.39;19.57
73453;BME280;61687;56.232;43.854;2022-08-02T13:21:04;100909.56;;;43.40;18.91
73453;BME280;61687;56.232;43.854;2022-08-02T13:23:32;100910.63;;;43.52;19.18